createdAt,value
2018-11-22T00:34:20.939Z,7
2018-11-22T00:40:15.912Z,5.97
2018-11-22T01:03:55.932Z,6.77
2018-11-22T01:27:35.950Z,5.99
2018-11-22T02:09:00.996Z,6.77
2018-11-22T02:14:55.984Z,7.47
2018-11-22T04:01:26.063Z,8.44
2018-11-22T06:35:16.243Z,8.03
2018-11-22T07:34:26.259Z,11.63
2018-11-22T08:45:26.311Z,16.37
2018-11-22T08:51:21.340Z,16.49
2018-11-22T08:57:16.359Z,15.76
2018-11-22T09:03:11.326Z,15.47
2018-11-22T09:09:06.331Z,14.5
2018-11-22T09:15:01.387Z,16.7
2018-11-22T09:20:56.334Z,15.61
2018-11-22T09:26:51.360Z,15.71
2018-11-22T09:32:46.341Z,16.61
2018-11-22T09:38:41.347Z,15.75
2018-11-22T09:44:36.391Z,15.4
2018-11-22T09:50:31.434Z,17.14
2018-11-22T09:56:26.395Z,15.32
2018-11-22T10:02:21.408Z,13.95
2018-11-22T10:08:16.376Z,10.13
2018-11-22T10:14:11.474Z,11.98
2018-11-22T10:20:06.432Z,12.59
2018-11-22T10:26:01.396Z,7.89
2018-11-22T10:31:56.402Z,8.27
2018-11-22T10:37:51.647Z,9.86
2018-11-22T10:43:46.423Z,7.79
2018-11-22T10:49:41.429Z,6.53
2018-11-22T10:55:36.437Z,6.26
2018-11-22T11:01:31.440Z,7.31
2018-11-22T11:07:27.206Z,5.41
2018-11-22T11:13:21.468Z,7.57
2018-11-22T11:19:16.463Z,8.14
2018-11-22T11:25:11.476Z,7.67
2018-11-22T11:31:06.487Z,9.03
2018-11-22T11:37:01.466Z,8.4
2018-11-22T11:42:56.500Z,8.83
2018-11-22T11:48:51.482Z,7.63
2018-11-22T11:54:46.518Z,6.82
2018-11-22T12:00:41.509Z,8.27
2018-11-22T12:06:36.491Z,8.48
2018-11-22T12:12:31.526Z,5.81
2018-11-22T12:18:26.520Z,6.23
2018-11-22T12:24:21.520Z,6.42
2018-11-22T12:30:16.547Z,6.43
2018-11-22T12:36:11.529Z,7.3
2018-11-22T12:42:06.523Z,7.9
2018-11-22T12:48:01.553Z,6.85
2018-11-22T12:53:56.564Z,7.5
2018-11-22T12:59:51.544Z,7.06
2018-11-22T13:05:46.541Z,6.7
2018-11-22T13:11:41.734Z,7.34
2018-11-22T13:17:36.646Z,6.66
2018-11-22T13:23:31.639Z,5.94
2018-11-22T13:29:26.571Z,5.54
2018-11-22T13:35:21.583Z,4.82
2018-11-22T13:41:16.627Z,4.91
2018-11-22T13:47:11.593Z,3.47
2018-11-22T13:53:06.602Z,3.03
2018-11-22T13:59:01.629Z,3.67
2018-11-22T14:04:56.629Z,3.53
2018-11-22T14:10:51.634Z,4.54
2018-11-22T14:16:46.650Z,4.64
2018-11-22T14:22:41.649Z,6
2018-11-22T14:28:36.628Z,5.9
2018-11-22T14:34:31.629Z,4.81
2018-11-22T14:40:26.699Z,5.65
2018-11-22T14:46:21.644Z,7.12
2018-11-22T14:52:16.653Z,5.97
2018-11-22T14:58:11.682Z,6.44
2018-11-22T15:04:06.650Z,6.34
2018-11-22T15:10:01.672Z,7.87
2018-11-22T15:15:56.675Z,7.66
2018-11-22T15:21:51.678Z,4.39
2018-11-22T15:27:46.685Z,3.53
2018-11-22T15:33:41.684Z,3.94
2018-11-22T15:39:36.714Z,4.71
2018-11-22T15:45:34.901Z,5.63
2018-11-22T15:51:26.710Z,6.51
2018-11-22T15:57:21.699Z,8.52
2018-11-22T16:03:16.738Z,8.08
2018-11-22T16:09:11.769Z,10.23
2018-11-22T16:15:06.731Z,7.87
2018-11-22T16:21:01.733Z,8.43
2018-11-22T16:26:56.730Z,10.6
2018-11-22T16:32:51.746Z,9.51
2018-11-22T16:38:46.746Z,10.54
2018-11-22T16:44:41.760Z,10.85
2018-11-22T16:50:36.809Z,9.41
2018-11-22T16:56:31.773Z,12.62
2018-11-22T17:02:26.771Z,11.78
2018-11-22T17:08:21.802Z,10.83
2018-11-22T17:14:16.781Z,9.98
2018-11-22T17:20:11.779Z,8.71
2018-11-22T17:26:06.818Z,8.2
2018-11-22T17:32:01.797Z,9.02
2018-11-22T17:37:56.808Z,10.16
2018-11-22T17:43:51.822Z,10.17
2018-11-22T17:49:46.816Z,10.44
2018-11-22T17:55:41.810Z,9.6
2018-11-22T18:01:36.823Z,10.7
2018-11-22T18:07:31.838Z,10.42
2018-11-22T18:13:26.846Z,12.28
2018-11-22T18:19:21.829Z,13.27
2018-11-22T18:25:16.829Z,12.46
2018-11-22T18:31:11.819Z,10.92
2018-11-22T18:37:06.833Z,11.72
2018-11-22T18:43:01.888Z,12.57
2018-11-22T18:48:56.917Z,14.07
2018-11-22T18:54:51.859Z,13.21
2018-11-22T19:00:46.860Z,12.62
2018-11-22T19:06:41.906Z,11.14
2018-11-22T19:12:36.873Z,14.51
2018-11-22T19:18:31.896Z,13.32
2018-11-22T19:24:26.909Z,14.41
2018-11-22T19:30:21.911Z,15.03
2018-11-22T19:36:16.909Z,16.82
2018-11-22T19:42:11.993Z,17.24
2018-11-22T19:48:06.924Z,13.9
2018-11-22T19:54:01.921Z,14.17
2018-11-22T19:59:56.935Z,13.06
2018-11-22T20:05:52.010Z,14.4
2018-11-22T20:11:46.962Z,17.68
2018-11-22T20:17:41.949Z,16.11
2018-11-22T20:23:36.992Z,16.94
2018-11-22T20:29:31.957Z,20.13
2018-11-22T20:35:27.002Z,22.58
2018-11-22T20:41:23.021Z,19.93
2018-11-22T20:47:16.968Z,17.91
2018-11-22T20:53:12.038Z,16.09
2018-11-22T20:59:07.006Z,14.89
2018-11-22T21:05:01.981Z,16.58
2018-11-22T21:10:56.981Z,17.18
2018-11-22T21:16:52.067Z,16.47
2018-11-22T21:22:47.024Z,15.41
2018-11-22T21:28:41.989Z,13.75
2018-11-22T21:34:37.052Z,13.28
2018-11-22T21:40:32.015Z,14.04
2018-11-22T21:46:27.057Z,17.33
2018-11-22T21:52:22.050Z,17.54
2018-11-22T21:58:17.012Z,17.86
2018-11-22T22:04:12.033Z,18.35
2018-11-22T22:10:07.048Z,18.54
2018-11-22T22:16:02.038Z,18.23
2018-11-22T22:21:57.034Z,18.05
2018-11-22T22:27:52.092Z,16.51
2018-11-22T22:33:47.092Z,19.32
2018-11-22T22:39:42.081Z,18.11
2018-11-22T22:45:37.097Z,18.99
2018-11-22T22:51:32.065Z,19.01
2018-11-22T22:57:27.086Z,18.04
2018-11-22T23:03:22.086Z,18.92
2018-11-22T23:09:17.086Z,17.32
2018-11-22T23:15:12.142Z,11.8
2018-11-22T23:21:07.119Z,11.22
2018-11-22T23:27:02.102Z,11.56
2018-11-22T23:32:57.141Z,14.52
2018-11-22T23:38:52.159Z,14.52
2018-11-22T23:44:47.127Z,11.73
2018-11-22T23:50:42.101Z,11.08
2018-11-22T23:56:37.128Z,8.74
